Time;durP1;ratioP1;P1;durP2;ratioP2;P2;SDS_P1;SDS_P2;PMS_P1;PMS_P2;Temp;Humidity;BMP_temperature;BMP_pressure;BME280_temperature;BME280_humidity;BME280_pressure;Samples;Min_cycle;Max_cycle;Signal;HPM_P1;HPM_P2
2022/03/27 00:03:23;;;;;;;13.87;9.03;;;;;;;6.91;100.00;97859.94;10451636;28;20254;-56
2022/03/27 00:08:24;;;;;;;15.33;9.47;;;;;;;7.06;100.00;97865.88;10451081;28;20208;-57
2022/03/27 00:13:24;;;;;;;14.60;9.20;;;;;;;7.08;100.00;97874.41;10451551;28;20270;-60
2022/03/27 00:18:25;;;;;;;13.73;8.57;;;;;;;7.26;100.00;97874.91;10451207;28;20227;-60
2022/03/27 00:23:25;;;;;;;11.37;8.23;;;;;;;7.34;100.00;97882.19;10457087;28;20715;-61
2022/03/27 00:28:31;;;;;;;16.07;9.40;;;;;;;7.25;100.00;97882.84;10458871;28;20235;-60
2022/03/27 00:33:32;;;;;;;13.63;9.13;;;;;;;7.23;100.00;97901.19;10458747;28;20220;-60
2022/03/27 00:38:33;;;;;;;12.47;8.93;;;;;;;7.29;100.00;97897.34;10458034;28;20239;-59
2022/03/27 00:43:33;;;;;;;16.30;9.47;;;;;;;7.34;100.00;97897.00;10458450;28;20180;-60
2022/03/27 00:48:34;;;;;;;14.60;8.97;;;;;;;7.41;100.00;97893.00;10457637;28;20208;-60
2022/03/27 00:53:34;;;;;;;14.80;8.80;;;;;;;7.38;100.00;97891.47;10457491;28;20625;-60
2022/03/27 00:58:34;;;;;;;14.00;8.83;;;;;;;7.21;100.00;97886.59;10457514;28;20235;-59
2022/03/27 01:03:36;;;;;;;15.87;9.70;;;;;;;7.07;100.00;97882.31;10457039;28;20271;-57
2022/03/27 01:13:56;;;;;;;15.03;9.13;;;;;;;6.89;100.00;97877.44;10456535;28;20294;-59
2022/03/27 01:18:58;;;;;;;18.30;10.03;;;;;;;6.76;100.00;97874.81;10456045;28;20634;-60
2022/03/27 01:23:58;;;;;;;17.70;11.37;;;;;;;6.58;100.00;97881.28;10456098;28;20214;-57
2022/03/27 01:28:59;;;;;;;17.00;10.17;;;;;;;6.39;100.00;97873.88;10455801;28;20643;-60
2022/03/27 01:33:59;;;;;;;17.83;10.43;;;;;;;6.11;100.00;97875.69;10455739;28;20190;-60
2022/03/27 01:39:02;;;;;;;16.53;10.23;;;;;;;6.00;100.00;97871.19;10455645;28;20702;-58
2022/03/27 01:44:05;;;;;;;16.40;10.03;;;;;;;5.22;100.00;97870.84;10456053;28;20192;-55
2022/03/27 01:49:07;;;;;;;16.30;10.40;;;;;;;4.94;100.00;97864.75;10455252;28;20215;-58
2022/03/27 01:54:08;;;;;;;17.03;10.07;;;;;;;4.52;100.00;97862.03;10455204;28;20199;-59
2022/03/27 01:59:09;;;;;;;15.60;9.43;;;;;;;4.29;100.00;97866.78;10454624;28;20214;-56
2022/03/27 02:04:11;;;;;;;17.90;10.40;;;;;;;3.80;100.00;97863.53;10455347;28;20199;-57
2022/03/27 02:09:12;;;;;;;19.47;10.93;;;;;;;3.84;100.00;97865.03;10454426;28;20619;-59
2022/03/27 02:14:13;;;;;;;20.83;11.20;;;;;;;3.65;100.00;97878.22;10454650;28;20204;-57
2022/03/27 02:19:13;;;;;;;19.57;11.53;;;;;;;3.49;100.00;97873.88;10454296;28;20712;-54
2022/03/27 02:24:13;;;;;;;18.87;10.80;;;;;;;3.57;100.00;97868.25;10454061;28;20575;-59
2022/03/27 02:29:14;;;;;;;19.13;11.50;;;;;;;3.30;100.00;97861.06;10454056;28;20629;-56
2022/03/27 02:34:15;;;;;;;21.30;11.83;;;;;;;3.17;100.00;97853.13;10454053;28;20196;-57
2022/03/27 02:39:15;;;;;;;21.50;10.93;;;;;;;3.14;100.00;97855.88;10453509;28;20239;-57
2022/03/27 02:44:16;;;;;;;17.83;9.93;;;;;;;3.02;100.00;97853.94;10452896;28;20670;-56
2022/03/27 02:49:16;;;;;;;19.07;11.63;;;;;;;2.77;100.00;97855.22;10452993;28;20747;-54
2022/03/27 02:54:17;;;;;;;17.27;10.33;;;;;;;2.80;100.00;97857.66;10453052;28;20288;-59
2022/03/27 02:59:17;;;;;;;21.60;11.27;;;;;;;2.66;100.00;97866.13;10452826;28;20641;-55
2022/03/27 03:04:18;;;;;;;21.63;11.30;;;;;;;2.58;100.00;97868.25;10452517;28;20604;-59
2022/03/27 03:09:18;;;;;;;21.03;11.77;;;;;;;2.36;100.00;97878.84;10452297;28;20222;-56
2022/03/27 03:14:19;;;;;;;22.27;11.20;;;;;;;2.21;100.00;97872.69;10452686;28;20233;-59
2022/03/27 03:19:19;;;;;;;22.63;11.10;;;;;;;2.01;100.00;97873.66;10452479;28;20707;-56
2022/03/27 03:24:19;;;;;;;22.10;11.57;;;;;;;2.00;100.00;97869.41;10452671;28;20217;-59
2022/03/27 03:29:21;;;;;;;21.80;11.60;;;;;;;2.02;100.00;97870.19;10452066;28;20325;-52
2022/03/27 03:34:21;;;;;;;25.50;12.27;;;;;;;1.97;100.00;97872.13;10452033;28;20209;-58
2022/03/27 03:39:21;;;;;;;25.90;14.10;;;;;;;1.89;100.00;97877.66;10451743;28;20239;-53
2022/03/27 03:44:23;;;;;;;27.33;13.17;;;;;;;1.99;100.00;97885.84;10451717;28;20207;-58
2022/03/27 03:49:24;;;;;;;25.93;13.97;;;;;;;1.95;100.00;97881.72;10451376;28;20223;-58
2022/03/27 03:54:25;;;;;;;26.20;12.00;;;;;;;2.11;100.00;97890.41;10452378;28;20219;-55
2022/03/27 03:59:25;;;;;;;24.70;11.53;;;;;;;2.00;100.00;97887.50;10459503;28;20222;-57
2022/03/27 04:04:26;;;;;;;25.73;12.80;;;;;;;1.89;100.00;97888.00;10459681;28;20281;-59
2022/03/27 04:09:27;;;;;;;23.47;12.47;;;;;;;1.71;100.00;97886.28;10459460;28;20222;-56
2022/03/27 04:14:34;;;;;;;27.53;12.73;;;;;;;1.65;100.00;97895.16;10459568;28;20278;-58
2022/03/27 04:19:34;;;;;;;26.27;12.90;;;;;;;1.64;100.00;97890.91;10459113;28;20263;-53
2022/03/27 04:24:34;;;;;;;26.57;12.60;;;;;;;1.59;100.00;97901.47;10458970;28;20222;-51
2022/03/27 04:29:35;;;;;;;24.40;12.57;;;;;;;1.58;100.00;97906.72;10458575;28;20227;-51
2022/03/27 04:34:35;;;;;;;23.13;11.37;;;;;;;1.53;100.00;97909.50;10458650;28;20282;-57
2022/03/27 04:39:36;;;;;;;25.60;12.10;;;;;;;1.49;100.00;97909.72;10458263;28;20235;-56
2022/03/27 04:44:36;;;;;;;24.77;12.73;;;;;;;1.44;100.00;97909.94;10458223;28;20195;-52
2022/03/27 04:49:37;;;;;;;27.60;13.50;;;;;;;1.38;100.00;97900.69;10457957;28;20219;-59
2022/03/27 04:54:38;;;;;;;34.53;14.40;;;;;;;1.28;100.00;97907.19;10457316;28;20604;-57
2022/03/27 04:59:38;;;;;;;29.80;13.90;;;;;;;1.27;100.00;97897.75;10457551;28;20252;-53
2022/03/27 05:04:40;;;;;;;31.07;14.03;;;;;;;1.30;100.00;97901.94;10457523;28;20362;-51
2022/03/27 05:09:40;;;;;;;33.67;12.87;;;;;;;1.27;100.00;97892.59;10456347;28;20219;-51
2022/03/27 05:14:41;;;;;;;31.50;14.60;;;;;;;1.22;100.00;97904.88;10457221;28;20566;-52
2022/03/27 05:19:41;;;;;;;30.40;14.27;;;;;;;1.24;100.00;97903.91;10456660;28;20552;-52
2022/03/27 05:24:43;;;;;;;30.07;14.00;;;;;;;1.29;100.00;97906.28;10456704;28;20585;-58
2022/03/27 05:29:43;;;;;;;28.23;13.03;;;;;;;1.31;100.00;97907.03;10456533;28;20302;-52
2022/03/27 05:34:43;;;;;;;34.80;13.50;;;;;;;1.27;100.00;97918.41;10455881;28;20275;-52
2022/03/27 05:39:44;;;;;;;29.30;13.93;;;;;;;1.17;100.00;97917.16;10456283;28;20195;-51
2022/03/27 05:44:44;;;;;;;29.37;14.83;;;;;;;1.10;100.00;97924.31;10455405;28;20206;-51
2022/03/27 05:49:44;;;;;;;33.13;14.57;;;;;;;1.08;100.00;97913.22;10455861;28;20315;-51
2022/03/27 05:54:45;;;;;;;28.27;12.80;;;;;;;1.38;100.00;97925.69;10454489;28;20190;-52
2022/03/27 05:59:45;;;;;;;30.93;14.50;;;;;;;1.97;100.00;97931.56;10455717;28;20203;-51
2022/03/27 06:04:46;;;;;;;27.07;14.20;;;;;;;2.53;100.00;97924.56;10454797;28;20234;-55
2022/03/27 06:09:46;;;;;;;24.67;14.23;;;;;;;3.17;100.00;97933.38;10455126;28;20294;-51
2022/03/27 06:14:48;;;;;;;30.20;17.67;;;;;;;3.08;100.00;97928.69;10454555;28;20271;-53
2022/03/27 06:19:48;;;;;;;33.00;15.07;;;;;;;3.60;100.00;97932.88;10453640;28;20177;-52
2022/03/27 06:24:48;;;;;;;24.13;11.27;;;;;;;4.17;100.00;97934.94;10454271;28;20742;-54
2022/03/27 06:29:49;;;;;;;21.73;11.97;;;;;;;4.44;100.00;97923.88;10454139;28;20710;-57
2022/03/27 06:34:49;;;;;;;22.77;13.33;;;;;;;4.58;100.00;97923.94;10453280;28;20762;-53
2022/03/27 06:39:50;;;;;;;21.50;13.23;;;;;;;4.80;100.00;97925.28;10453549;28;20671;-54
2022/03/27 06:44:51;;;;;;;21.30;11.87;;;;;;;5.24;100.00;97932.19;10452924;28;20645;-55
2022/03/27 06:49:57;;;;;;;22.17;13.43;;;;;;;5.27;100.00;97942.41;10453393;28;20231;-57
2022/03/27 06:54:58;;;;;;;19.57;11.93;;;;;;;5.93;100.00;97934.06;10452296;28;20306;-52
2022/03/27 07:05:22;;;;;;;15.37;10.07;;;;;;;8.46;91.17;97881.13;10452236;28;20207;-54
2022/03/27 07:10:22;;;;;;;17.30;10.50;;;;;;;8.99;85.96;97864.13;10452578;28;20219;-55
2022/03/27 07:15:24;;;;;;;15.23;9.77;;;;;;;9.02;83.53;97867.34;10451983;28;20218;-55
2022/03/27 07:20:26;;;;;;;15.47;10.50;;;;;;;9.67;84.83;97871.94;10452384;28;20183;-55
2022/03/27 07:25:28;;;;;;;18.27;10.30;;;;;;;10.04;79.57;97833.16;10451746;28;20308;-57
2022/03/27 07:30:29;;;;;;;16.43;11.33;;;;;;;10.72;77.56;97822.34;10451893;28;20220;-57
2022/03/27 07:35:30;;;;;;;13.82;10.13;;;;;;;11.21;75.19;97814.69;10451954;28;20242;-57
2022/03/27 07:40:31;;;;;;;15.73;10.70;;;;;;;11.54;72.78;97782.03;10450043;28;20554;-56
2022/03/27 07:45:32;;;;;;;17.75;12.23;;;;;;;11.92;72.37;97787.47;10451755;28;20617;-55
2022/03/27 07:50:32;;;;;;;13.77;10.55;;;;;;;13.10;69.44;97767.00;10451764;28;20269;-54
2022/03/27 07:55:33;;;;;;;13.40;10.45;;;;;;;12.97;65.40;97706.81;10451100;28;20215;-58
2022/03/27 08:00:33;;;;;;;14.60;9.55;;;;;;;12.14;70.09;97807.38;10451692;28;20685;-57
2022/03/27 08:05:34;;;;;;;12.93;9.80;;;;;;;14.17;62.23;97689.00;10451338;28;20590;-59
2022/03/27 08:10:34;;;;;;;10.48;8.25;;;;;;;15.21;58.23;97645.78;10451501;28;20219;-56
2022/03/27 08:15:34;;;;;;;11.48;8.43;;;;;;;15.45;58.98;97678.47;10451229;28;20214;-56
2022/03/27 08:20:35;;;;;;;11.50;8.50;;;;;;;15.34;56.45;97625.00;10451377;28;20669;-61
2022/03/27 08:30:55;;;;;;;8.93;6.78;;;;;;;18.04;48.98;97561.31;10450944;28;20219;-57
2022/03/27 08:35:57;;;;;;;13.93;11.23;;;;;;;15.44;56.33;97687.38;10450565;28;20240;-58
2022/03/27 08:41:01;;;;;;;12.77;8.80;;;;;;;14.36;56.94;97680.06;10451372;28;20196;-61
2022/03/27 08:46:01;;;;;;;11.07;7.95;;;;;;;14.84;56.54;97691.84;10440172;28;20228;-61
2022/03/27 08:51:09;;;;;;;11.20;8.85;;;;;;;14.72;57.35;97715.03;10458079;28;20306;-61
2022/03/27 08:56:10;;;;;;;15.70;9.10;;;;;;;15.22;54.18;97646.59;10439616;28;20223;-58
2022/03/27 09:01:11;;;;;;;12.07;8.80;;;;;;;15.56;53.88;97659.66;10439952;28;20667;-59
2022/03/27 09:06:12;;;;;;;10.55;8.68;;;;;;;15.27;54.55;97676.78;10457403;28;20216;-55
2022/03/27 09:11:15;;;;;;;10.65;8.15;;;;;;;16.18;51.55;97605.44;10457410;28;20269;-57
2022/03/27 09:16:16;;;;;;;11.40;8.23;;;;;;;17.54;49.43;97606.03;10456960;28;20294;-58
2022/03/27 09:21:19;;;;;;;13.05;9.10;;;;;;;15.54;54.98;97687.22;10456900;28;20684;-58
2022/03/27 09:26:20;;;;;;;11.40;8.55;;;;;;;15.02;53.88;97653.97;10456582;28;20641;-58
2022/03/27 09:31:24;;;;;;;10.70;8.07;;;;;;;15.38;53.70;97656.34;10456690;28;20251;-56
2022/03/27 09:36:30;;;;;;;10.57;8.15;;;;;;;15.51;52.23;97635.53;10456070;28;20943;-54
2022/03/27 09:41:42;;;;;;;9.15;7.60;;;;;;;15.94;52.54;97652.09;10456045;28;20667;-57
2022/03/27 09:46:52;;;;;;;9.68;7.88;;;;;;;16.77;50.79;97632.31;10455771;28;20238;-56
2022/03/27 09:52:13;;;;;;;11.40;8.00;;;;;;;17.29;48.90;97580.56;10455303;28;20311;-62
2022/03/27 09:57:30;;;;;;;9.70;7.55;;;;;;;17.24;49.17;97585.56;10453725;28;20624;-60
2022/03/27 10:02:31;;;;;;;10.35;7.53;;;;;;;18.50;45.40;97527.44;10454716;28;20195;-60
2022/03/27 10:07:41;;;;;;;10.98;7.57;;;;;;;17.77;48.78;97598.03;10454777;28;20206;-60
2022/03/27 10:12:43;;;;;;;10.73;8.82;;;;;;;17.47;50.09;97633.22;10454327;28;20222;-55
2022/03/27 10:17:52;;;;;;;10.25;7.80;;;;;;;19.50;45.34;97571.94;10453860;28;20212;-60
2022/03/27 10:23:02;;;;;;;13.93;10.32;;;;;;;19.27;45.41;97557.03;10436539;28;20685;-63
2022/03/27 10:28:03;;;;;;;11.82;8.48;;;;;;;17.72;48.73;97605.69;10454039;28;20243;-58
2022/03/27 10:33:06;;;;;;;10.80;9.07;;;;;;;17.81;48.51;97591.38;10435315;28;20220;-60
2022/03/27 10:38:15;;;;;;;10.98;7.13;;;;;;;19.52;44.86;97552.13;10410674;28;20256;-60
2022/03/27 10:43:23;;;;;;;10.02;8.05;;;;;;;19.92;43.78;97525.84;10412544;28;20235;-61
2022/03/27 10:48:34;;;;;;;10.27;8.15;;;;;;;19.14;45.65;97549.78;10411925;28;20204;-59
2022/03/27 10:53:35;;;;;;;10.82;8.38;;;;;;;19.10;43.39;97474.13;10411445;28;20253;-62
2022/03/27 10:58:40;;;;;;;10.35;8.55;;;;;;;19.77;43.17;97498.56;10410692;28;20204;-62
2022/03/27 11:03:51;;;;;;;10.57;7.90;;;;;;;18.66;44.74;97507.00;10410865;28;20238;-59
2022/03/27 11:08:53;;;;;;;9.35;7.55;;;;;;;18.91;44.74;97511.97;10410915;28;20216;-59
2022/03/27 11:13:53;;;;;;;10.82;8.40;;;;;;;20.11;44.10;97540.25;10410592;28;20227;-63
2022/03/27 11:18:54;;;;;;;9.52;7.32;;;;;;;21.37;41.45;97495.50;10410616;28;20238;-64
2022/03/27 11:24:03;;;;;;;10.43;7.88;;;;;;;21.66;38.22;97402.78;10410679;28;20235;-62
2022/03/27 11:29:23;;;;;;;10.40;7.90;;;;;;;20.67;42.04;97486.03;10410274;28;20208;-59
2022/03/27 11:34:26;;;;;;;7.93;7.05;;;;;;;21.49;39.71;97432.56;10410214;28;20238;-62
2022/03/27 11:39:29;;;;;;;8.45;6.63;;;;;;;23.23;37.72;97428.16;10419614;23;20236;-62
2022/03/27 11:49:51;;;;;;;10.45;7.70;;;;;;;19.76;40.53;97385.22;10369716;28;20236;-60
2022/03/27 11:55:05;;;;;;;9.48;7.18;;;;;;;21.97;38.26;97399.38;10369274;28;20194;-62
2022/03/27 12:00:06;;;;;;;8.35;6.90;;;;;;;22.53;37.04;97368.50;10369436;28;20213;-61
2022/03/27 12:05:06;;;;;;;12.18;6.60;;;;;;;23.99;35.25;97352.00;10369677;28;20533;-61
2022/03/27 12:10:07;;;;;;;9.65;7.00;;;;;;;21.13;38.96;97356.56;10369285;28;20221;-62
2022/03/27 12:15:09;;;;;;;7.95;7.13;;;;;;;20.49;39.84;97366.00;10370094;28;20193;-60
2022/03/27 12:20:10;;;;;;;9.80;7.00;;;;;;;22.29;36.83;97326.53;10377231;28;20216;-60
2022/03/27 12:25:23;;;;;;;10.20;8.05;;;;;;;19.20;39.99;97301.13;10377228;28;20193;-59
2022/03/27 12:30:35;;;;;;;8.60;6.57;;;;;;;20.82;38.95;97362.53;10376449;28;20229;-59
2022/03/27 12:35:35;;;;;;;10.10;7.55;;;;;;;20.81;38.14;97320.94;10376890;28;20189;-60
2022/03/27 12:40:45;;;;;;;9.02;6.60;;;;;;;22.03;38.59;97373.69;10375998;28;20237;-59
2022/03/27 12:45:45;;;;;;;7.45;6.43;;;;;;;21.66;38.02;97334.28;10376618;28;20201;-58
2022/03/27 12:50:48;;;;;;;7.55;6.18;;;;;;;23.02;35.78;97301.88;10375544;28;20660;-60
2022/03/27 12:55:57;;;;;;;9.98;5.75;;;;;;;23.84;35.66;97341.72;10375818;28;20219;-59
2022/03/27 13:01:08;;;;;;;8.13;6.25;;;;;;;24.57;34.27;97315.75;10375314;28;20213;-59
2022/03/27 13:06:09;;;;;;;6.68;5.80;;;;;;;24.85;33.01;97276.72;10375763;28;20193;-60
2022/03/27 13:11:19;;;;;;;7.10;6.28;;;;;;;25.09;32.20;97253.38;10374957;28;20217;-60
2022/03/27 13:16:34;;;;;;;9.23;5.95;;;;;;;20.93;36.66;97233.25;10375354;28;20197;-58
2022/03/27 13:21:40;;;;;;;6.07;5.40;;;;;;;22.79;34.88;97263.28;10374594;28;20559;-60
2022/03/27 13:26:51;;;;;;;6.97;5.55;;;;;;;23.40;34.94;97279.50;10373864;28;20247;-59
2022/03/27 13:31:52;;;;;;;9.52;6.00;;;;;;;24.88;32.39;97232.56;10373733;28;20236;-59
2022/03/27 13:36:54;;;;;;;7.10;5.70;;;;;;;25.15;31.54;97206.03;10374079;28;20189;-61
2022/03/27 13:47:15;;;;;;;9.07;6.15;;;;;;;20.09;37.03;97187.69;10373290;28;20221;-60
2022/03/27 13:52:15;;;;;;;8.52;6.10;;;;;;;22.52;34.68;97219.97;10373599;28;20224;-60
2022/03/27 13:57:15;;;;;;;12.25;6.63;;;;;;;23.35;33.21;97176.94;10372450;28;20221;-61
2022/03/27 14:02:17;;;;;;;5.95;5.20;;;;;;;22.05;34.96;97208.84;10373046;28;20186;-61
2022/03/27 14:07:18;;;;;;;8.65;5.97;;;;;;;23.57;33.00;97209.31;10372663;28;20221;-59
2022/03/27 14:12:18;;;;;;;7.57;6.38;;;;;;;24.54;32.34;97209.03;10372121;28;20672;-62
2022/03/27 14:17:18;;;;;;;6.85;5.55;;;;;;;25.46;30.98;97195.94;10372282;28;20223;-59
2022/03/27 14:22:19;;;;;;;7.72;6.25;;;;;;;24.89;31.60;97188.63;10372552;28;20225;-60
2022/03/27 14:27:19;;;;;;;6.88;5.78;;;;;;;24.53;32.35;97196.69;10371909;28;20216;-59
2022/03/27 14:32:21;;;;;;;7.85;6.38;;;;;;;24.97;31.42;97182.09;10372193;28;20274;-59
2022/03/27 14:37:24;;;;;;;7.25;5.72;;;;;;;25.93;30.06;97174.19;10371203;28;20248;-59
2022/03/27 14:42:24;;;;;;;10.50;7.03;;;;;;;19.73;37.96;97179.06;10370956;28;20243;-58
2022/03/27 14:47:28;;;;;;;8.38;6.22;;;;;;;22.94;33.49;97164.06;10371018;28;20244;-62
2022/03/27 14:52:28;;;;;;;8.25;6.55;;;;;;;26.65;30.12;97204.84;10371421;28;20665;-60
2022/03/27 14:57:29;;;;;;;10.23;7.23;;;;;;;27.25;29.08;97174.69;10370587;28;20270;-59
2022/03/27 15:02:29;;;;;;;9.43;6.90;;;;;;;27.26;28.97;97174.44;10370900;28;20436;-59
2022/03/27 15:07:30;;;;;;;8.87;7.20;;;;;;;27.69;27.47;97120.78;10370667;28;20243;-59
2022/03/27 15:12:30;;;;;;;7.93;7.13;;;;;;;26.84;28.88;97132.00;10370448;28;20472;-60
2022/03/27 15:17:30;;;;;;;7.35;6.65;;;;;;;27.15;28.17;97133.16;10370332;28;20749;-60
2022/03/27 15:22:32;;;;;;;8.45;6.30;;;;;;;27.42;28.36;97124.28;10370581;28;20568;-59
2022/03/27 15:27:32;;;;;;;10.25;6.60;;;;;;;26.76;28.61;97116.31;10370077;28;20642;-61
2022/03/27 15:32:34;;;;;;;7.15;6.03;;;;;;;28.62;26.74;97098.78;10370650;28;20316;-60
2022/03/27 15:37:35;;;;;;;8.45;6.97;;;;;;;29.59;25.93;97128.94;10369512;28;20593;-62
2022/03/27 15:42:36;;;;;;;8.85;7.15;;;;;;;28.98;26.60;97115.06;10370506;28;20201;-60
2022/03/27 15:47:37;;;;;;;8.57;7.63;;;;;;;28.18;27.26;97095.53;10369737;28;20243;-60
2022/03/27 15:52:38;;;;;;;8.70;7.80;;;;;;;28.32;27.11;97104.78;10374884;28;20340;-61
2022/03/27 15:57:38;;;;;;;8.45;7.00;;;;;;;26.46;29.29;97115.66;10377407;28;20589;-61
2022/03/27 16:02:40;;;;;;;9.40;7.50;;;;;;;26.67;29.43;97126.69;10377894;28;20255;-60
2022/03/27 16:07:40;;;;;;;9.25;7.60;;;;;;;23.83;32.75;97119.84;10377795;28;20880;-60
2022/03/27 16:12:41;;;;;;;11.90;8.77;;;;;;;25.74;30.76;97152.16;10377307;28;20229;-61
2022/03/27 16:17:41;;;;;;;9.17;7.90;;;;;;;25.95;30.28;97136.38;10377048;28;20217;-60
2022/03/27 16:22:41;;;;;;;10.73;8.83;;;;;;;25.04;32.03;97158.66;10377209;28;20443;-60
2022/03/27 16:27:42;;;;;;;14.23;11.45;;;;;;;22.51;36.17;97210.34;10376447;28;20542;-58
2022/03/27 16:32:42;;;;;;;13.80;9.73;;;;;;;19.04;40.94;97242.03;10376980;28;20225;-59
2022/03/27 16:37:42;;;;;;;11.77;9.05;;;;;;;17.12;45.04;97335.47;10375495;28;20232;-60
2022/03/27 16:42:44;;;;;;;14.43;10.00;;;;;;;15.83;48.20;97393.47;10376370;28;20196;-58
2022/03/27 16:47:45;;;;;;;13.75;9.75;;;;;;;15.14;50.16;97460.00;10375351;28;20217;-57
2022/03/27 16:52:46;;;;;;;12.73;9.25;;;;;;;14.40;52.13;97484.50;10375391;28;20770;-55
2022/03/27 16:57:47;;;;;;;14.38;9.40;;;;;;;13.80;53.95;97518.84;10374776;28;20212;-57
2022/03/27 17:02:48;;;;;;;13.40;9.02;;;;;;;13.49;55.24;97535.97;10373878;28;20197;-55
2022/03/27 17:07:50;;;;;;;17.55;9.40;;;;;;;13.16;56.39;97558.56;10374963;28;20767;-58
2022/03/27 17:12:50;;;;;;;13.07;8.60;;;;;;;12.87;56.93;97558.81;10374702;28;20225;-56
2022/03/27 17:17:51;;;;;;;15.68;9.07;;;;;;;12.60;57.93;97579.75;10374422;28;20213;-57
2022/03/27 17:22:53;;;;;;;13.52;9.30;;;;;;;12.39;59.11;97593.13;10374616;28;20204;-56
2022/03/27 17:27:53;;;;;;;15.73;9.20;;;;;;;11.99;60.48;97610.03;10374182;28;20267;-57
2022/03/27 17:32:53;;;;;;;13.40;8.70;;;;;;;10.51;64.41;97667.78;10374680;28;20758;-55
2022/03/27 17:37:54;;;;;;;13.97;8.80;;;;;;;10.25;65.53;97665.56;10401786;22;21272;-59
2022/03/27 17:42:55;;;;;;;17.23;10.67;;;;;;;9.49;69.02;97706.81;10455944;28;20279;-60
2022/03/27 17:47:55;;;;;;;46.20;25.57;;;;;;;8.78;71.07;97710.69;10437673;28;20216;-57
2022/03/27 17:52:56;;;;;;;35.57;16.20;;;;;;;8.75;72.89;97709.13;10455179;28;20751;-59
2022/03/27 17:57:56;;;;;;;25.20;11.67;;;;;;;8.13;76.82;97710.41;10455089;28;20706;-56
2022/03/27 18:02:57;;;;;;;19.67;8.83;;;;;;;8.11;78.77;97696.63;10455131;28;20184;-59
2022/03/27 18:07:58;;;;;;;14.27;8.30;;;;;;;7.84;82.72;97705.59;10454782;28;20220;-58
2022/03/27 18:12:59;;;;;;;17.63;10.93;;;;;;;7.57;85.96;97692.81;10454589;28;20303;-56
2022/03/27 18:18:00;;;;;;;34.80;19.23;;;;;;;7.44;88.58;97690.31;10454211;28;20208;-58
2022/03/27 18:23:01;;;;;;;13.23;6.73;;;;;;;7.33;91.51;97700.66;10454538;28;20241;-59
2022/03/27 18:28:01;;;;;;;10.00;6.67;;;;;;;7.19;95.02;97704.28;10453918;28;20257;-57
2022/03/27 18:33:02;;;;;;;12.30;7.20;;;;;;;7.05;96.63;97704.44;10453878;28;20698;-58
2022/03/27 18:38:02;;;;;;;11.83;7.23;;;;;;;6.89;98.09;97700.31;10453220;28;20284;-58
2022/03/27 18:43:02;;;;;;;10.40;7.37;;;;;;;6.68;100.00;97709.66;10453499;28;20207;-58
2022/03/27 18:48:04;;;;;;;11.13;7.53;;;;;;;6.53;100.00;97709.75;10453094;28;20216;-56
2022/03/27 18:53:05;;;;;;;11.53;6.80;;;;;;;6.48;100.00;97721.44;10452935;28;20691;-54
2022/03/27 18:58:06;;;;;;;13.67;7.63;;;;;;;6.29;100.00;97721.88;10452620;28;20215;-56
2022/03/27 19:03:07;;;;;;;12.33;7.00;;;;;;;6.12;100.00;97725.63;10453000;28;20188;-54
2022/03/27 19:08:07;;;;;;;13.23;7.97;;;;;;;5.95;100.00;97729.31;10452192;28;20211;-56
2022/03/27 19:13:08;;;;;;;13.40;8.03;;;;;;;5.83;100.00;97734.38;10451252;28;20220;-55
2022/03/27 19:18:17;;;;;;;12.53;7.73;;;;;;;5.62;100.00;97733.19;10452258;28;20211;-52
2022/03/27 19:23:19;;;;;;;11.90;7.27;;;;;;;5.51;100.00;97731.28;10434476;28;20196;-54
2022/03/27 19:28:19;;;;;;;12.43;7.63;;;;;;;5.37;100.00;97732.19;10451313;28;20212;-51
2022/03/27 19:33:19;;;;;;;12.57;7.93;;;;;;;5.16;100.00;97718.81;10451775;28;20269;-55
2022/03/27 19:38:20;;;;;;;13.13;8.63;;;;;;;5.05;100.00;97723.84;10451351;28;20236;-52
2022/03/27 19:43:21;;;;;;;17.37;8.60;;;;;;;4.98;100.00;97724.25;10451935;28;20196;-53
2022/03/27 19:48:21;;;;;;;16.37;9.50;;;;;;;4.84;100.00;97719.09;10451601;28;20222;-50
2022/03/27 19:53:22;;;;;;;13.00;8.13;;;;;;;4.82;100.00;97711.41;10451344;28;20222;-52
2022/03/27 19:58:22;;;;;;;17.93;8.20;;;;;;;4.81;100.00;97714.91;10451200;28;20757;-51
2022/03/27 20:03:22;;;;;;;16.70;9.20;;;;;;;4.62;100.00;97714.38;10451694;28;20720;-52
2022/03/27 20:08:23;;;;;;;15.20;8.03;;;;;;;4.50;100.00;97713.34;10451364;28;20705;-51
2022/03/27 20:13:23;;;;;;;11.17;6.07;;;;;;;4.46;100.00;97714.50;10451318;28;20764;-53
2022/03/27 20:18:24;;;;;;;14.33;7.80;;;;;;;4.39;100.00;97705.41;10451206;28;20281;-51
2022/03/27 20:23:25;;;;;;;15.67;8.97;;;;;;;4.25;100.00;97709.66;10450999;28;20279;-52
2022/03/27 20:28:26;;;;;;;15.47;9.10;;;;;;;4.19;100.00;97699.66;10451119;28;20216;-51
2022/03/27 20:33:26;;;;;;;17.07;8.90;;;;;;;4.11;100.00;97699.28;10450882;28;20683;-51
2022/03/27 20:38:26;;;;;;;16.63;9.53;;;;;;;4.03;100.00;97698.94;10449315;28;20288;-52
2022/03/27 20:43:27;;;;;;;13.20;7.97;;;;;;;3.99;100.00;97687.06;10458557;28;20188;-51
2022/03/27 20:48:27;;;;;;;10.90;6.23;;;;;;;4.00;100.00;97688.75;10458039;28;20243;-52
2022/03/27 20:53:27;;;;;;;14.57;9.00;;;;;;;3.89;100.00;97689.34;10458219;28;20326;-51
2022/03/27 20:58:28;;;;;;;15.73;8.27;;;;;;;3.84;100.00;97692.22;10457531;28;20219;-50
2022/03/27 21:03:28;;;;;;;16.47;9.83;;;;;;;3.78;100.00;97689.16;10458150;28;20200;-51
2022/03/27 21:08:31;;;;;;;15.23;6.60;;;;;;;3.79;100.00;97686.47;10456910;28;20653;-51
2022/03/27 21:13:31;;;;;;;13.87;8.23;;;;;;;3.69;100.00;97682.75;10457460;28;20216;-51
2022/03/27 21:18:31;;;;;;;13.07;7.20;;;;;;;3.63;100.00;97683.97;10457235;28;20220;-51
2022/03/27 21:23:32;;;;;;;20.27;8.00;;;;;;;3.57;100.00;97685.13;10456912;28;20239;-51
2022/03/27 21:28:32;;;;;;;18.30;9.23;;;;;;;3.48;100.00;97685.66;10456933;28;20208;-50
2022/03/27 21:33:32;;;;;;;17.53;9.53;;;;;;;3.38;100.00;97687.97;10454978;28;20628;-51
2022/03/27 21:38:33;;;;;;;16.03;8.07;;;;;;;3.45;100.00;97683.25;10456628;28;20227;-56
2022/03/27 21:43:33;;;;;;;15.87;9.60;;;;;;;3.34;100.00;97690.81;10456669;28;20276;-56
2022/03/27 21:48:36;;;;;;;14.07;8.47;;;;;;;3.31;100.00;97678.88;10455666;28;20585;-56
2022/03/27 21:53:37;;;;;;;14.47;7.27;;;;;;;3.30;100.00;97669.41;10455921;28;20713;-57
2022/03/27 21:58:38;;;;;;;15.60;8.90;;;;;;;3.25;100.00;97665.41;10455263;28;20219;-55
2022/03/27 22:03:39;;;;;;;18.93;8.30;;;;;;;3.19;100.00;97674.38;10455760;28;20188;-52
2022/03/27 22:08:39;;;;;;;22.30;9.57;;;;;;;3.08;100.00;97672.41;10455019;28;20276;-51
2022/03/27 22:13:41;;;;;;;13.83;7.20;;;;;;;3.13;100.00;97666.97;10454969;28;20386;-53
2022/03/27 22:18:41;;;;;;;16.47;8.83;;;;;;;3.02;100.00;97670.16;10454731;28;20357;-53
2022/03/27 22:23:42;;;;;;;16.10;9.17;;;;;;;2.97;100.00;97670.41;10454223;28;20719;-51
2022/03/27 22:28:42;;;;;;;16.23;8.83;;;;;;;2.85;100.00;97661.56;10454387;28;20245;-51
2022/03/27 22:33:43;;;;;;;16.53;9.03;;;;;;;2.80;100.00;97653.22;10454264;28;20709;-52
2022/03/27 22:38:48;;;;;;;18.17;9.20;;;;;;;2.82;100.00;97653.97;10453649;28;20712;-57
2022/03/27 22:43:48;;;;;;;17.13;9.13;;;;;;;2.84;100.00;97646.13;10454086;28;20187;-53
2022/03/27 22:48:49;;;;;;;15.90;8.80;;;;;;;2.80;100.00;97637.72;10453108;28;20682;-56
2022/03/27 22:53:49;;;;;;;14.07;7.53;;;;;;;2.73;100.00;97638.97;10453090;28;20310;-54
2022/03/27 22:58:50;;;;;;;18.47;9.87;;;;;;;2.66;100.00;97641.06;10453154;28;20207;-52
2022/03/27 23:03:50;;;;;;;13.93;7.63;;;;;;;2.62;100.00;97641.28;10452684;28;20612;-54
2022/03/27 23:08:50;;;;;;;17.63;9.23;;;;;;;2.55;100.00;97629.63;10452867;28;20635;-51
2022/03/27 23:13:51;;;;;;;17.10;8.53;;;;;;;2.59;100.00;97626.78;10452744;28;20614;-51
2022/03/27 23:18:51;;;;;;;12.03;7.17;;;;;;;2.49;100.00;97618.69;10453907;28;20639;-56
2022/03/27 23:23:51;;;;;;;11.70;5.97;;;;;;;2.53;100.00;97603.00;10455986;28;20199;-53
2022/03/27 23:28:52;;;;;;;12.83;6.63;;;;;;;2.45;100.00;97609.44;10452193;28;20218;-51
2022/03/27 23:33:52;;;;;;;14.03;7.33;;;;;;;2.47;100.00;97602.41;10452240;28;20310;-55